createdAt,value
2023-04-27T00:01:51.712Z,97043.94
2023-04-27T00:04:41.778Z,97045.88
2023-04-27T00:07:30.363Z,97031.94
2023-04-27T00:10:18.691Z,97031.72
2023-04-27T00:13:07.236Z,97043.75
2023-04-27T00:15:55.750Z,97038.19
2023-04-27T00:18:44.188Z,97043.22
2023-04-27T00:21:33.927Z,97041.66
2023-04-27T00:24:22.318Z,97040.06
2023-04-27T00:27:13.432Z,97042.16
2023-04-27T00:30:01.826Z,97043.22
2023-04-27T00:32:50.339Z,97036.81
2023-04-27T00:35:38.865Z,97039.75
2023-04-27T00:38:28.696Z,97034.66
2023-04-27T00:41:17.094Z,97033.88
2023-04-27T00:44:05.612Z,97033.06
2023-04-27T00:46:54.572Z,97037.06
2023-04-27T00:49:44.618Z,97036.28
2023-04-27T00:52:33.033Z,97037.84
2023-04-27T00:55:23.025Z,97030.34
2023-04-27T00:58:11.898Z,97029.81
2023-04-27T01:01:00.479Z,97030.34
2023-04-27T01:03:49.160Z,97026.59
2023-04-27T01:06:37.646Z,97030.63
2023-04-27T01:09:26.053Z,97028.25
2023-04-27T01:12:15.889Z,97032.25
2023-04-27T01:15:04.749Z,97041.66
2023-04-27T01:17:59.155Z,97033.91
2023-04-27T01:20:49.832Z,97019.16
2023-04-27T01:23:39.613Z,97022.34
2023-04-27T01:26:28.072Z,97025.59
2023-04-27T01:29:16.493Z,97022.94
2023-04-27T01:32:05.728Z,97032.00
2023-04-27T01:34:54.147Z,97036.81
2023-04-27T01:37:42.608Z,97036.28
2023-04-27T01:40:33.087Z,97028.28
2023-04-27T01:43:21.452Z,97028.28
2023-04-27T01:46:11.525Z,97020.25
2023-04-27T01:48:59.901Z,97034.16
2023-04-27T01:51:49.727Z,97031.50
2023-04-27T01:54:38.095Z,97028.81
2023-04-27T01:57:29.320Z,97032.56
2023-04-27T02:00:18.629Z,97029.38
2023-04-27T02:03:10.060Z,97036.84
2023-04-27T02:05:58.788Z,97028.03
2023-04-27T02:08:47.127Z,97038.50
2023-04-27T02:11:35.537Z,97035.28
2023-04-27T02:14:25.260Z,97040.88
2023-04-27T02:17:13.738Z,97035.28
2023-04-27T02:20:02.456Z,97037.94
2023-04-27T02:22:50.868Z,97030.47
2023-04-27T02:25:39.270Z,97040.09
2023-04-27T02:28:27.750Z,97038.19
2023-04-27T02:31:17.995Z,97039.56
2023-04-27T02:34:07.771Z,97039.56
2023-04-27T02:36:56.371Z,97043.31
2023-04-27T02:39:44.752Z,97046.50
2023-04-27T02:42:33.138Z,97043.84
2023-04-27T02:45:21.465Z,97049.22
2023-04-27T02:48:11.215Z,97050.28
2023-04-27T02:50:59.794Z,97052.97
2023-04-27T02:53:48.195Z,97051.91
2023-04-27T02:56:36.629Z,97048.69
2023-04-27T02:59:25.106Z,97047.66
2023-04-27T03:02:13.670Z,97053.25
2023-04-27T03:05:04.826Z,97051.94
2023-04-27T03:07:53.167Z,97054.09
2023-04-27T03:10:41.643Z,97053.59
2023-04-27T03:13:31.516Z,97051.75
2023-04-27T03:16:21.099Z,97049.34
2023-04-27T03:19:09.518Z,97058.44
2023-04-27T03:21:59.219Z,97058.44
2023-04-27T03:24:47.578Z,97057.41
2023-04-27T03:27:37.636Z,97062.75
2023-04-27T03:30:26.002Z,97062.22
2023-04-27T03:33:14.437Z,97060.63
2023-04-27T03:36:04.426Z,97070.78
2023-04-27T03:38:54.148Z,97069.97
2023-04-27T03:41:42.486Z,97062.75
2023-04-27T03:44:33.553Z,97068.09
2023-04-27T03:47:22.020Z,97066.03
2023-04-27T03:50:11.413Z,97066.53
2023-04-27T03:52:59.772Z,97068.97
2023-04-27T03:55:49.636Z,97070.81
2023-04-27T03:58:38.246Z,97069.47
2023-04-27T04:01:36.421Z,97081.53
2023-04-27T04:04:24.932Z,97082.06
2023-04-27T04:07:13.568Z,97081.00
2023-04-27T04:10:02.032Z,97077.81
2023-04-27T04:12:51.900Z,97083.72
2023-04-27T04:15:40.377Z,97089.84
2023-04-27T04:18:29.281Z,97092.25
2023-04-27T04:21:17.719Z,97093.34
2023-04-27T04:24:06.486Z,97100.56
2023-04-27T04:26:55.075Z,97095.75
2023-04-27T04:29:44.823Z,97097.06
2023-04-27T04:32:33.807Z,97103.75
2023-04-27T04:35:22.196Z,97119.81
2023-04-27T04:38:11.100Z,97116.88
2023-04-27T04:41:01.214Z,97123.53
2023-04-27T04:43:52.837Z,97123.28
2023-04-27T04:46:42.690Z,97111.00
2023-04-27T04:49:31.059Z,97114.22
2023-04-27T04:52:19.424Z,97118.75
2023-04-27T04:55:08.449Z,97122.47
2023-04-27T04:57:56.837Z,97123.78
2023-04-27T05:00:45.853Z,97125.69
2023-04-27T05:03:35.655Z,97119.53
2023-04-27T05:06:24.119Z,97114.19
2023-04-27T05:09:14.002Z,97114.69
2023-04-27T05:12:02.973Z,97121.13
2023-04-27T05:14:52.502Z,97120.03
2023-04-27T05:17:40.959Z,97122.19
2023-04-27T05:20:30.727Z,97121.38
2023-04-27T05:23:19.093Z,97129.66
2023-04-27T05:26:12.828Z,97137.16
2023-04-27T05:29:01.335Z,97129.38
2023-04-27T05:31:49.805Z,97134.72
2023-04-27T05:34:38.248Z,97131.25
2023-04-27T05:37:27.934Z,97130.16
2023-04-27T05:40:16.835Z,97135.50
2023-04-27T05:43:05.709Z,97133.34
2023-04-27T05:45:54.957Z,97153.66
2023-04-27T05:48:43.394Z,97151.50
2023-04-27T05:51:32.049Z,97160.56
2023-04-27T05:54:21.924Z,97155.72
2023-04-27T05:57:10.256Z,97160.56
2023-04-27T05:59:58.758Z,97150.91
2023-04-27T06:02:47.186Z,97152.75
2023-04-27T06:05:35.904Z,97160.22
2023-04-27T06:08:24.504Z,97166.88
2023-04-27T06:11:14.226Z,97164.47
2023-04-27T06:14:02.622Z,97159.88
2023-04-27T06:16:51.180Z,97168.47
2023-04-27T06:19:39.583Z,97164.44
2023-04-27T06:22:28.250Z,97164.69
2023-04-27T06:25:16.593Z,97167.84
2023-04-27T06:28:06.622Z,97167.25
2023-04-27T06:30:55.184Z,97168.31
2023-04-27T06:33:43.575Z,97160.78
2023-04-27T06:36:32.126Z,97165.28
2023-04-27T06:39:20.458Z,97172.47
2023-04-27T06:42:08.894Z,97171.88
2023-04-27T06:44:58.752Z,97173.97
2023-04-27T06:47:47.158Z,97169.09
2023-04-27T06:50:35.536Z,97174.13
2023-04-27T06:53:24.017Z,97171.72
2023-04-27T06:56:13.138Z,97165.75
2023-04-27T06:59:01.489Z,97172.31
2023-04-27T07:01:51.881Z,97174.41
2023-04-27T07:04:40.482Z,97182.34
2023-04-27T07:07:29.028Z,97187.56
2023-04-27T07:10:17.473Z,97181.34
2023-04-27T07:13:08.815Z,97180.44
2023-04-27T07:15:58.829Z,97178.19
2023-04-27T07:18:48.564Z,97173.50
2023-04-27T07:21:37.041Z,97174.31
2023-04-27T07:24:25.559Z,97167.69
2023-04-27T07:27:15.066Z,97167.81
2023-04-27T07:30:03.448Z,97169.19
2023-04-27T07:32:54.569Z,97166.31
2023-04-27T07:35:44.502Z,97168.44
2023-04-27T07:38:32.834Z,97171.63
2023-04-27T07:41:21.332Z,97173.28
2023-04-27T07:44:09.671Z,97176.34
2023-04-27T07:46:58.596Z,97172.66
2023-04-27T07:49:47.231Z,97178.31
2023-04-27T07:52:37.303Z,97182.59
2023-04-27T07:55:26.536Z,97175.72
2023-04-27T07:58:14.944Z,97185.88
2023-04-27T08:01:03.330Z,97188.84
2023-04-27T08:03:51.961Z,97178.66
2023-04-27T08:06:41.181Z,97182.81
2023-04-27T08:09:32.186Z,97180.25
2023-04-27T08:12:20.815Z,97187.84
2023-04-27T08:15:10.638Z,97183.91
2023-04-27T08:17:59.412Z,97178.44
2023-04-27T08:20:47.762Z,97176.06
2023-04-27T08:23:37.171Z,97187.78
2023-04-27T08:26:27.185Z,97181.22
2023-04-27T08:29:27.100Z,97181.06
2023-04-27T08:32:17.153Z,97187.97
2023-04-27T08:35:06.249Z,97184.41
2023-04-27T08:37:55.420Z,97179.06
2023-04-27T08:40:44.777Z,97184.34
2023-04-27T08:43:37.926Z,97183.06
2023-04-27T08:46:27.656Z,97180.88
2023-04-27T08:49:17.674Z,97186.66
2023-04-27T08:52:12.068Z,97188.84
2023-04-27T08:55:01.724Z,97179.28
2023-04-27T08:57:57.806Z,97182.47
2023-04-27T09:00:50.731Z,97187.44
2023-04-27T09:03:41.355Z,97184.44
2023-04-27T09:06:33.492Z,97184.91
2023-04-27T09:09:25.938Z,97186.59
2023-04-27T09:12:18.878Z,97180.97
2023-04-27T09:15:08.691Z,97172.75
2023-04-27T09:17:58.997Z,97178.75
2023-04-27T09:20:48.032Z,97171.16
2023-04-27T09:23:40.760Z,97175.44
2023-04-27T09:26:31.496Z,97171.50
2023-04-27T09:29:20.121Z,97167.56
2023-04-27T09:32:18.018Z,97168.25
2023-04-27T09:35:18.412Z,97171.03
2023-04-27T09:38:06.829Z,97172.78
2023-04-27T09:40:56.604Z,97162.25
2023-04-27T09:43:45.793Z,97171.22
2023-04-27T09:46:34.687Z,97156.97
2023-04-27T09:49:23.598Z,97155.94
2023-04-27T09:52:13.376Z,97155.69
2023-04-27T09:55:03.389Z,97152.06
2023-04-27T09:57:56.962Z,97148.63
2023-04-27T10:00:53.248Z,97144.78
2023-04-27T10:03:52.735Z,97140.69
2023-04-27T10:06:58.030Z,97137.47
2023-04-27T10:09:49.717Z,97122.47
2023-04-27T10:12:38.111Z,97136.09
2023-04-27T10:15:27.986Z,97131.84
2023-04-27T10:18:27.158Z,97129.81
2023-04-27T10:21:16.479Z,97127.34
2023-04-27T10:24:09.537Z,97129.31
2023-04-27T10:27:05.640Z,97118.81
2023-04-27T10:29:54.250Z,97124.50
2023-04-27T10:32:51.937Z,97124.84
2023-04-27T10:35:42.045Z,97120.31
2023-04-27T10:38:32.676Z,97111.91
2023-04-27T10:41:21.116Z,97123.97
2023-04-27T10:44:18.088Z,97115.22
2023-04-27T10:47:19.867Z,97111.38
2023-04-27T10:50:11.293Z,97105.06
2023-04-27T10:53:02.566Z,97116.84
2023-04-27T10:55:57.595Z,97112.63
2023-04-27T10:58:49.352Z,97114.72
2023-04-27T11:01:39.410Z,97114.91
2023-04-27T11:04:38.392Z,97105.88
2023-04-27T11:07:29.060Z,97109.41
2023-04-27T11:10:18.561Z,97105.59
2023-04-27T11:13:12.329Z,97107.50
2023-04-27T11:16:01.337Z,97111.09
2023-04-27T11:18:51.266Z,97112.25
2023-04-27T11:21:39.827Z,97114.63
2023-04-27T11:24:28.213Z,97118.25
2023-04-27T11:27:16.622Z,97117.94
2023-04-27T11:30:07.500Z,97118.31
2023-04-27T11:32:55.963Z,97110.00
2023-04-27T11:35:46.157Z,97111.25
2023-04-27T11:38:36.135Z,97115.22
2023-04-27T11:41:24.631Z,97112.28
2023-04-27T11:44:13.823Z,97109.41
2023-04-27T11:47:02.720Z,97110.81
2023-04-27T11:49:51.716Z,97119.09
2023-04-27T11:52:41.794Z,97116.00
2023-04-27T11:55:30.690Z,97110.44
2023-04-27T11:58:19.566Z,97115.31
2023-04-27T12:01:10.157Z,97110.41
2023-04-27T12:04:01.531Z,97115.06
2023-04-27T12:06:51.589Z,97110.75
2023-04-27T12:09:42.072Z,97126.44
2023-04-27T12:12:31.354Z,97114.34
2023-04-27T12:15:19.694Z,97118.69
2023-04-27T12:18:08.876Z,97115.66
2023-04-27T12:20:59.007Z,97114.22
2023-04-27T12:23:51.696Z,97111.19
2023-04-27T12:26:41.725Z,97116.31
2023-04-27T12:29:32.093Z,97107.28
2023-04-27T12:32:20.559Z,97109.88
2023-04-27T12:35:10.084Z,97113.09
2023-04-27T12:37:58.684Z,97112.03
2023-04-27T12:40:47.080Z,97108.78
2023-04-27T12:43:38.282Z,97110.72
2023-04-27T12:46:26.813Z,97114.00
2023-04-27T12:49:15.368Z,97112.75
2023-04-27T12:52:03.746Z,97119.88
2023-04-27T12:54:57.659Z,97108.50
2023-04-27T12:57:46.276Z,97107.50
2023-04-27T13:00:36.070Z,97106.16
2023-04-27T13:03:24.640Z,97107.56
2023-04-27T13:06:13.204Z,97105.03
2023-04-27T13:09:02.518Z,97094.53
2023-04-27T13:11:52.756Z,97091.94
2023-04-27T13:14:42.446Z,97088.84
2023-04-27T13:17:32.148Z,97089.53
2023-04-27T13:20:20.527Z,97085.78
2023-04-27T13:23:08.914Z,97086.78
2023-04-27T13:25:57.255Z,97090.31
2023-04-27T13:28:46.174Z,97095.09
2023-04-27T13:31:34.654Z,97076.78
2023-04-27T13:34:24.543Z,97082.41
2023-04-27T13:37:12.959Z,97077.66
2023-04-27T13:40:01.344Z,97083.53
2023-04-27T13:42:49.839Z,97078.88
2023-04-27T13:45:39.695Z,97087.91
2023-04-27T13:48:28.434Z,97076.31
2023-04-27T13:51:18.178Z,97077.41
2023-04-27T13:54:06.618Z,97079.34
2023-04-27T13:56:55.002Z,97072.44
2023-04-27T13:59:43.324Z,97074.44
2023-04-27T14:02:32.165Z,97071.75
2023-04-27T14:05:20.534Z,97070.19
2023-04-27T14:08:10.357Z,97065.28
2023-04-27T14:10:59.888Z,97063.03
2023-04-27T14:13:48.502Z,97062.34
2023-04-27T14:16:36.942Z,97052.00
2023-04-27T14:19:25.458Z,97043.94
2023-04-27T14:22:13.842Z,97044.50
2023-04-27T14:25:03.658Z,97041.13
2023-04-27T14:27:52.059Z,97033.44
2023-04-27T14:30:40.591Z,97032.81
2023-04-27T14:33:29.055Z,97031.41
2023-04-27T14:36:18.245Z,97027.03
2023-04-27T14:39:07.249Z,97025.81
2023-04-27T14:41:57.282Z,97040.25
2023-04-27T14:44:47.168Z,97038.22
2023-04-27T14:47:36.499Z,97043.47
2023-04-27T14:50:25.164Z,97041.53
2023-04-27T14:53:13.533Z,97031.00
2023-04-27T14:56:01.918Z,97041.88
2023-04-27T14:58:51.678Z,97047.53
2023-04-27T15:01:40.452Z,97043.31
2023-04-27T15:04:28.996Z,97045.03
2023-04-27T15:07:17.397Z,97042.97
2023-04-27T15:10:07.013Z,97038.00
2023-04-27T15:12:55.490Z,97047.59
2023-04-27T15:15:46.107Z,97040.00
2023-04-27T15:18:35.394Z,97032.78
2023-04-27T15:21:23.874Z,97028.06
2023-04-27T15:24:12.208Z,97033.63
2023-04-27T15:27:00.546Z,97039.16
2023-04-27T15:29:49.189Z,97037.16
2023-04-27T15:32:39.168Z,97029.41
2023-04-27T15:35:27.584Z,97043.06
2023-04-27T15:38:17.867Z,97034.34
2023-04-27T15:41:06.512Z,97026.06
2023-04-27T15:43:54.996Z,97023.44
2023-04-27T15:46:43.364Z,97023.56
2023-04-27T15:49:39.907Z,97032.09
2023-04-27T15:52:34.847Z,97032.97
2023-04-27T15:55:23.546Z,97032.44
2023-04-27T15:58:11.945Z,97031.56
2023-04-27T16:01:00.653Z,97035.53
2023-04-27T16:03:49.198Z,97033.72
2023-04-27T16:06:39.292Z,97036.91
2023-04-27T16:09:27.720Z,97031.00
2023-04-27T16:12:16.542Z,97028.63
2023-04-27T16:15:06.406Z,97023.56
2023-04-27T16:17:55.837Z,97022.19
2023-04-27T16:20:44.443Z,97023.19
2023-04-27T16:23:34.171Z,97021.19
2023-04-27T16:26:22.613Z,97013.00
2023-04-27T16:29:11.530Z,97011.00
2023-04-27T16:32:00.356Z,97012.41
2023-04-27T16:34:48.909Z,97012.84
2023-04-27T16:37:37.295Z,97009.09
2023-04-27T16:40:27.064Z,97010.13
2023-04-27T16:43:15.629Z,97008.50
2023-04-27T16:46:03.981Z,97009.91
2023-04-27T16:48:52.420Z,97014.84
2023-04-27T16:51:40.904Z,97025.22
2023-04-27T16:54:29.248Z,97021.78
2023-04-27T16:57:20.076Z,97024.97
2023-04-27T17:00:10.728Z,97024.31
2023-04-27T17:02:59.156Z,97026.88
2023-04-27T17:05:47.805Z,97021.44
2023-04-27T17:08:36.144Z,97015.91
2023-04-27T17:11:24.676Z,97005.78
2023-04-27T17:14:14.892Z,96999.81
2023-04-27T17:17:03.243Z,97011.63
2023-04-27T17:19:51.587Z,97011.00
2023-04-27T17:22:39.995Z,97015.97
2023-04-27T17:25:28.438Z,97015.44
2023-04-27T17:28:16.825Z,97009.06
2023-04-27T17:31:07.015Z,97008.09
2023-04-27T17:33:55.433Z,97008.69
2023-04-27T17:36:44.033Z,97003.47
2023-04-27T17:39:32.449Z,96999.41
2023-04-27T17:42:21.173Z,97007.66
2023-04-27T17:45:10.777Z,97009.47
2023-04-27T17:48:00.679Z,97002.09
2023-04-27T17:50:49.001Z,97006.16
2023-04-27T17:53:37.329Z,97001.28
2023-04-27T17:56:25.650Z,97009.16
2023-04-27T17:59:14.188Z,97014.97
2023-04-27T18:02:03.106Z,97002.63
2023-04-27T18:04:52.912Z,97002.19
2023-04-27T18:07:41.454Z,97000.44
2023-04-27T18:10:29.783Z,97001.56
2023-04-27T18:13:18.123Z,97006.94
2023-04-27T18:16:06.910Z,97006.78
2023-04-27T18:18:55.351Z,97003.25
2023-04-27T18:21:45.057Z,96999.91
2023-04-27T18:24:33.427Z,97016.44
2023-04-27T18:27:21.823Z,97019.19
2023-04-27T18:30:10.487Z,97013.78
2023-04-27T18:32:59.083Z,97026.84
2023-04-27T18:35:47.520Z,97029.03
2023-04-27T18:38:37.312Z,97038.13
2023-04-27T18:41:25.976Z,97032.38
2023-04-27T18:44:15.712Z,97039.41
2023-04-27T18:47:04.637Z,97036.84
2023-04-27T18:49:52.960Z,97043.09
2023-04-27T18:52:41.381Z,97045.31
2023-04-27T18:55:31.599Z,97037.66
2023-04-27T18:58:19.970Z,97040.81
2023-04-27T19:01:08.477Z,97035.25
2023-04-27T19:03:57.972Z,97041.31
2023-04-27T19:06:47.646Z,97049.59
2023-04-27T19:09:36.111Z,97053.53
2023-04-27T19:12:26.070Z,97046.88
2023-04-27T19:15:15.473Z,97059.41
2023-04-27T19:18:10.650Z,97060.19
2023-04-27T19:20:59.958Z,97056.97
2023-04-27T19:23:48.296Z,97049.94
2023-04-27T19:26:36.793Z,97055.47
2023-04-27T19:29:26.803Z,97050.69
2023-04-27T19:32:15.189Z,97053.88
2023-04-27T19:35:03.719Z,97048.31
2023-04-27T19:37:52.162Z,97059.63
2023-04-27T19:40:40.638Z,97060.41
2023-04-27T19:43:29.131Z,97052.63
2023-04-27T19:46:18.989Z,97063.88
2023-04-27T19:49:07.578Z,97058.78
2023-04-27T19:51:55.993Z,97058.91
2023-04-27T19:54:44.342Z,97058.91
2023-04-27T19:57:32.802Z,97062.72
2023-04-27T20:00:21.662Z,97055.88
2023-04-27T20:03:12.708Z,97061.09
2023-04-27T20:06:02.060Z,97055.50
2023-04-27T20:08:51.019Z,97051.38
2023-04-27T20:11:39.575Z,97059.13
2023-04-27T20:14:30.060Z,97061.13
2023-04-27T20:17:18.530Z,97052.38
2023-04-27T20:20:11.464Z,97056.31
2023-04-27T20:23:00.149Z,97056.25
2023-04-27T20:25:48.610Z,97056.69
2023-04-27T20:28:37.001Z,97054.53
2023-04-27T20:31:26.021Z,97061.78
2023-04-27T20:34:14.774Z,97046.66
2023-04-27T20:37:05.377Z,97056.47
2023-04-27T20:39:53.926Z,97052.88
2023-04-27T20:42:42.509Z,97049.03
2023-04-27T20:45:31.164Z,97048.44
2023-04-27T20:48:19.705Z,97037.00
2023-04-27T20:51:08.128Z,97036.13
2023-04-27T20:53:58.326Z,97038.66
2023-04-27T20:56:46.922Z,97035.47
2023-04-27T20:59:35.504Z,97025.91
2023-04-27T21:02:24.039Z,97033.47
2023-04-27T21:05:12.480Z,97042.47
2023-04-27T21:08:00.954Z,97041.91
2023-04-27T21:10:50.756Z,97037.91
2023-04-27T21:13:39.403Z,97051.44
2023-04-27T21:16:27.862Z,97044.84
2023-04-27T21:19:17.000Z,97046.28
2023-04-27T21:22:05.542Z,97041.28
2023-04-27T21:24:53.914Z,97043.56
2023-04-27T21:27:43.772Z,97043.06
2023-04-27T21:30:32.171Z,97042.09
2023-04-27T21:33:20.759Z,97039.50
2023-04-27T21:36:09.445Z,97039.00
2023-04-27T21:38:57.886Z,97034.50
2023-04-27T21:41:46.409Z,97027.34
2023-04-27T21:44:36.248Z,97031.13
2023-04-27T21:47:24.592Z,97022.16
2023-04-27T21:50:13.202Z,97023.34
2023-04-27T21:53:01.531Z,97014.97
2023-04-27T21:55:51.238Z,97020.41
2023-04-27T21:58:39.860Z,97017.72
2023-04-27T22:01:29.641Z,97016.75
2023-04-27T22:04:18.184Z,97018.72
2023-04-27T22:07:07.993Z,97017.34
2023-04-27T22:09:56.412Z,97019.53
2023-04-27T22:12:46.862Z,97012.56
2023-04-27T22:15:35.401Z,97012.84
2023-04-27T22:18:25.158Z,97018.91
2023-04-27T22:21:13.707Z,97011.97
2023-04-27T22:24:02.099Z,97007.69
2023-04-27T22:26:50.932Z,97002.88
2023-04-27T22:29:39.551Z,97005.75
2023-04-27T22:32:28.124Z,97007.94
2023-04-27T22:35:26.243Z,97008.53
2023-04-27T22:39:16.147Z,97002.03
2023-04-27T22:42:04.644Z,97000.34
2023-04-27T22:44:53.010Z,97011.06
2023-04-27T22:47:41.612Z,97008.38
2023-04-27T22:50:31.657Z,97004.09
2023-04-27T22:53:20.018Z,97011.13
2023-04-27T22:56:08.709Z,97009.13
2023-04-27T22:58:57.117Z,96995.72
2023-04-27T23:01:46.134Z,96998.47
2023-04-27T23:04:34.821Z,96987.50
2023-04-27T23:07:24.901Z,96994.28
2023-04-27T23:10:15.249Z,96997.31
2023-04-27T23:13:04.194Z,96992.28
2023-04-27T23:15:54.465Z,96994.91
2023-04-27T23:18:42.944Z,96995.13
2023-04-27T23:21:31.872Z,96992.59
2023-04-27T23:24:21.608Z,96993.91
2023-04-27T23:27:09.949Z,96987.13
2023-04-27T23:29:58.400Z,96984.03
2023-04-27T23:32:46.977Z,96988.91
2023-04-27T23:35:35.384Z,96983.81
2023-04-27T23:38:23.854Z,96980.91
2023-04-27T23:41:13.720Z,96978.34
2023-04-27T23:44:02.084Z,96976.19
2023-04-27T23:46:50.444Z,96977.00
2023-04-27T23:49:38.818Z,96978.22
2023-04-27T23:52:27.301Z,96972.59
2023-04-27T23:55:16.105Z,96975.25
2023-04-27T23:58:05.841Z,96969.31
